createdAt,value
2019-04-10T00:01:12.146Z,7.45
2019-04-10T00:03:41.820Z,7.35
2019-04-10T00:06:08.768Z,7.33
2019-04-10T00:08:36.553Z,7.25
2019-04-10T00:11:04.649Z,7.22
2019-04-10T00:13:32.032Z,7.21
2019-04-10T00:15:59.180Z,7.17
2019-04-10T00:18:26.370Z,7.13
2019-04-10T00:20:53.598Z,7.11
2019-04-10T00:23:20.654Z,7.10
2019-04-10T00:25:48.716Z,7.11
2019-04-10T00:28:17.024Z,7.07
2019-04-10T00:30:45.068Z,7.05
2019-04-10T00:33:12.435Z,7.04
2019-04-10T00:35:39.738Z,7.03
2019-04-10T00:38:07.233Z,7.01
2019-04-10T00:40:35.240Z,6.97
2019-04-10T00:43:02.321Z,7.02
2019-04-10T00:45:29.615Z,7.01
2019-04-10T00:47:56.662Z,7.02
2019-04-10T00:50:23.963Z,6.97
2019-04-10T00:52:51.264Z,6.92
2019-04-10T00:55:19.635Z,6.91
2019-04-10T00:57:47.777Z,6.85
2019-04-10T01:00:15.033Z,6.82
2019-04-10T01:02:42.930Z,6.80
2019-04-10T01:05:11.071Z,6.79
2019-04-10T01:07:41.145Z,6.74
2019-04-10T01:10:08.178Z,6.75
2019-04-10T01:12:36.243Z,6.71
2019-04-10T01:15:04.609Z,6.68
2019-04-10T01:17:32.768Z,6.69
2019-04-10T01:20:00.643Z,6.66
2019-04-10T01:22:27.904Z,6.64
2019-04-10T01:24:54.963Z,6.62
2019-04-10T01:27:22.006Z,6.60
2019-04-10T01:29:49.607Z,6.58
2019-04-10T01:32:17.415Z,6.55
2019-04-10T01:34:45.492Z,6.48
2019-04-10T01:37:12.572Z,6.51
2019-04-10T01:39:40.252Z,6.50
2019-04-10T01:42:08.170Z,6.46
2019-04-10T01:44:36.246Z,6.42
2019-04-10T01:47:04.586Z,6.39
2019-04-10T01:49:31.942Z,6.34
2019-04-10T01:51:59.545Z,6.33
2019-04-10T01:54:27.563Z,6.29
2019-04-10T01:56:55.591Z,6.29
2019-04-10T01:59:23.629Z,6.29
2019-04-10T02:01:50.654Z,6.23
2019-04-10T02:04:18.904Z,6.21
2019-04-10T02:06:46.204Z,6.18
2019-04-10T02:09:13.504Z,6.19
2019-04-10T02:11:40.559Z,6.18
2019-04-10T02:14:07.904Z,6.17
2019-04-10T02:16:35.168Z,6.17
2019-04-10T02:19:02.462Z,6.16
2019-04-10T02:21:29.698Z,6.17
2019-04-10T02:24:01.524Z,6.17
2019-04-10T02:26:29.721Z,6.17
2019-04-10T02:28:57.615Z,6.14
2019-04-10T02:31:26.438Z,6.13
2019-04-10T02:33:53.840Z,6.10
2019-04-10T02:36:21.325Z,6.15
2019-04-10T02:38:59.060Z,6.12
2019-04-10T02:41:17.657Z,6.12
2019-04-10T02:43:45.340Z,6.10
2019-04-10T02:46:13.309Z,6.10
2019-04-10T02:48:41.535Z,6.09
2019-04-10T02:51:09.700Z,6.10
2019-04-10T02:53:37.470Z,6.08
2019-04-10T02:56:05.385Z,6.09
2019-04-10T02:58:34.314Z,6.10
2019-04-10T03:01:03.090Z,6.10
2019-04-10T03:03:30.555Z,6.08
2019-04-10T03:05:58.735Z,6.09
2019-04-10T03:08:40.988Z,6.05
2019-04-10T03:11:00.410Z,6.05
2019-04-10T03:13:23.979Z,6.04
2019-04-10T03:15:51.813Z,6.02
2019-04-10T03:18:19.201Z,6.03
2019-04-10T03:20:46.827Z,6.01
2019-04-10T03:23:14.124Z,5.96
2019-04-10T03:25:41.500Z,5.95
2019-04-10T03:28:09.092Z,5.93
2019-04-10T03:30:38.786Z,5.95
2019-04-10T03:33:10.853Z,5.93
2019-04-10T03:35:34.672Z,5.93
2019-04-10T03:38:01.917Z,5.89
2019-04-10T03:40:29.277Z,5.86
2019-04-10T03:42:57.231Z,5.88
2019-04-10T03:45:24.503Z,5.90
2019-04-10T03:47:51.583Z,5.88
2019-04-10T03:50:28.644Z,5.88
2019-04-10T03:52:56.310Z,5.89
2019-04-10T03:55:23.352Z,5.88
2019-04-10T03:57:51.872Z,5.87
2019-04-10T04:00:20.887Z,5.86
2019-04-10T04:02:48.331Z,5.85
2019-04-10T04:05:15.444Z,5.84
2019-04-10T04:07:43.173Z,5.83
2019-04-10T04:10:12.699Z,5.82
2019-04-10T04:12:40.260Z,5.81
2019-04-10T04:15:07.630Z,5.77
2019-04-10T04:17:34.683Z,5.76
2019-04-10T04:20:02.511Z,5.72
2019-04-10T04:22:30.623Z,5.74
2019-04-10T04:24:58.188Z,5.76
2019-04-10T04:27:25.635Z,5.75
2019-04-10T04:29:54.100Z,5.75
2019-04-10T04:32:21.767Z,5.75
2019-04-10T04:34:49.771Z,5.75
2019-04-10T04:37:16.886Z,5.75
2019-04-10T04:39:45.303Z,5.70
2019-04-10T04:42:12.859Z,5.71
2019-04-10T04:44:40.294Z,5.68
2019-04-10T04:47:07.677Z,5.67
2019-04-10T04:49:35.805Z,5.67
2019-04-10T04:52:03.080Z,5.67
2019-04-10T04:54:30.992Z,5.69
2019-04-10T04:56:58.148Z,5.68
2019-04-10T04:59:26.180Z,5.69
2019-04-10T05:01:53.426Z,5.68
2019-04-10T05:04:20.767Z,5.68
2019-04-10T05:06:50.103Z,5.68
2019-04-10T05:09:30.120Z,5.69
2019-04-10T05:11:46.873Z,5.73
2019-04-10T05:14:15.272Z,5.74
2019-04-10T05:16:43.670Z,5.77
2019-04-10T05:19:12.156Z,5.80
2019-04-10T05:21:39.650Z,5.86
2019-04-10T05:24:07.358Z,5.91
2019-04-10T05:26:34.733Z,5.94
2019-04-10T05:29:02.664Z,5.98
2019-04-10T05:31:29.711Z,6.01
2019-04-10T05:33:57.466Z,6.05
2019-04-10T05:36:25.652Z,6.10
2019-04-10T05:38:52.686Z,6.11
2019-04-10T05:41:19.749Z,6.12
2019-04-10T05:43:47.039Z,6.16
2019-04-10T05:46:14.468Z,6.15
2019-04-10T05:48:41.899Z,6.13
2019-04-10T05:51:09.494Z,6.18
2019-04-10T05:53:36.872Z,6.16
2019-04-10T05:56:03.916Z,6.18
2019-04-10T05:58:31.516Z,6.23
2019-04-10T06:00:58.848Z,6.25
2019-04-10T06:03:26.010Z,6.27
2019-04-10T06:05:54.204Z,6.33
2019-04-10T06:08:21.690Z,6.37
2019-04-10T06:10:49.792Z,6.36
2019-04-10T06:13:17.267Z,6.47
2019-04-10T06:15:45.440Z,6.67
2019-04-10T06:18:13.954Z,6.74
2019-04-10T06:20:41.751Z,6.90
2019-04-10T06:23:09.494Z,7.10
2019-04-10T06:25:38.877Z,7.22
2019-04-10T06:28:05.574Z,7.34
2019-04-10T06:30:34.128Z,7.36
2019-04-10T06:33:02.151Z,7.57
2019-04-10T06:35:30.213Z,7.96
2019-04-10T06:37:57.311Z,8.46
2019-04-10T06:40:27.184Z,8.59
2019-04-10T06:42:55.016Z,8.83
2019-04-10T06:45:22.114Z,8.89
2019-04-10T06:47:49.408Z,9.34
2019-04-10T06:50:16.920Z,9.47
2019-04-10T06:52:44.998Z,9.71
2019-04-10T06:55:13.357Z,9.86
2019-04-10T06:57:50.987Z,9.71
2019-04-10T07:00:12.710Z,9.26
2019-04-10T07:02:38.785Z,9.25
2019-04-10T07:05:08.773Z,8.99
2019-04-10T07:07:46.035Z,8.70
2019-04-10T07:10:04.030Z,8.62
2019-04-10T07:12:34.082Z,8.64
2019-04-10T07:15:02.376Z,8.89
2019-04-10T07:17:35.670Z,9.19
2019-04-10T07:20:01.975Z,9.39
2019-04-10T07:22:31.134Z,9.53
2019-04-10T07:24:58.443Z,9.52
2019-04-10T07:27:25.718Z,9.39
2019-04-10T07:29:57.305Z,9.65
2019-04-10T07:32:24.173Z,9.43
2019-04-10T07:34:51.008Z,9.44
2019-04-10T07:37:21.672Z,9.00
2019-04-10T07:39:47.374Z,8.84
2019-04-10T07:42:26.021Z,8.82
2019-04-10T07:44:43.711Z,8.73
2019-04-10T07:47:11.176Z,8.72
2019-04-10T07:49:39.656Z,8.84
2019-04-10T07:52:06.899Z,8.96
2019-04-10T07:54:35.061Z,9.12
2019-04-10T07:57:02.517Z,9.22
2019-04-10T07:59:31.278Z,9.43
2019-04-10T08:01:58.460Z,9.56
2019-04-10T08:04:26.852Z,9.72
2019-04-10T08:06:54.411Z,9.95
2019-04-10T08:09:21.680Z,10.02
2019-04-10T08:11:48.951Z,10.04
2019-04-10T08:14:16.893Z,10.11
2019-04-10T08:16:43.965Z,10.16
2019-04-10T08:19:11.018Z,10.03
2019-04-10T08:21:38.321Z,9.97
2019-04-10T08:24:05.366Z,9.85
2019-04-10T08:26:32.571Z,10.15
2019-04-10T08:28:59.975Z,10.29
2019-04-10T08:31:27.015Z,10.28
2019-04-10T08:33:54.744Z,10.24
2019-04-10T08:36:21.804Z,10.06
2019-04-10T08:38:49.009Z,10.00
2019-04-10T08:41:17.163Z,9.99
2019-04-10T08:43:44.269Z,9.88
2019-04-10T08:46:12.808Z,10.00
2019-04-10T08:48:39.985Z,10.30
2019-04-10T08:51:07.261Z,10.58
2019-04-10T08:53:34.387Z,10.57
2019-04-10T08:56:02.390Z,10.64
2019-04-10T08:58:30.661Z,10.75
2019-04-10T09:00:58.659Z,10.95
2019-04-10T09:03:26.749Z,11.12
2019-04-10T09:05:53.848Z,11.06
2019-04-10T09:08:21.241Z,10.60
2019-04-10T09:10:48.595Z,10.58
2019-04-10T09:13:16.673Z,10.82
2019-04-10T09:15:44.142Z,10.83
2019-04-10T09:18:12.754Z,10.90
2019-04-10T09:20:40.566Z,10.79
2019-04-10T09:23:18.726Z,10.73
2019-04-10T09:25:37.477Z,11.01
2019-04-10T09:28:04.894Z,11.11
2019-04-10T09:30:33.833Z,10.98
2019-04-10T09:33:05.550Z,11.22
2019-04-10T09:35:30.785Z,11.27
2019-04-10T09:37:58.691Z,11.44
2019-04-10T09:40:26.091Z,11.48
2019-04-10T09:42:53.134Z,11.39
2019-04-10T09:45:20.191Z,11.51
2019-04-10T09:47:48.084Z,11.89
2019-04-10T09:50:15.276Z,12.09
2019-04-10T09:52:42.271Z,12.51
2019-04-10T09:55:09.552Z,12.65
2019-04-10T09:57:36.797Z,12.44
2019-04-10T10:00:05.226Z,12.52
2019-04-10T10:02:34.030Z,12.82
2019-04-10T10:05:02.247Z,12.96
2019-04-10T10:07:29.461Z,13.27
2019-04-10T10:10:00.437Z,13.79
2019-04-10T10:12:25.785Z,13.74
2019-04-10T10:14:53.876Z,13.09
2019-04-10T10:17:20.859Z,12.73
2019-04-10T10:19:48.179Z,12.45
2019-04-10T10:22:15.519Z,12.45
2019-04-10T10:24:42.868Z,12.64
2019-04-10T10:27:09.906Z,12.88
2019-04-10T10:29:37.647Z,13.02
2019-04-10T10:32:04.939Z,13.47
2019-04-10T10:34:31.987Z,13.86
2019-04-10T10:37:00.023Z,14.33
2019-04-10T10:39:28.570Z,14.56
2019-04-10T10:41:56.470Z,14.36
2019-04-10T10:44:23.820Z,13.73
2019-04-10T10:46:51.580Z,13.81
2019-04-10T10:49:20.156Z,14.11
2019-04-10T10:51:47.569Z,14.06
2019-04-10T10:54:14.673Z,14.19
2019-04-10T10:56:42.591Z,14.03
2019-04-10T10:59:09.714Z,13.85
2019-04-10T11:01:38.029Z,14.23
2019-04-10T11:04:05.110Z,14.48
2019-04-10T11:06:33.190Z,14.20
2019-04-10T11:09:00.189Z,14.15
2019-04-10T11:11:28.234Z,14.04
2019-04-10T11:13:55.262Z,13.64
2019-04-10T11:16:23.219Z,13.33
2019-04-10T11:18:50.917Z,13.34
2019-04-10T11:21:18.266Z,13.55
2019-04-10T11:23:45.274Z,13.48
2019-04-10T11:26:18.229Z,13.27
2019-04-10T11:28:41.906Z,13.37
2019-04-10T11:31:09.336Z,13.37
2019-04-10T11:33:37.298Z,13.26
2019-04-10T11:36:06.463Z,13.09
2019-04-10T11:38:35.762Z,13.17
2019-04-10T11:41:05.958Z,13.10
2019-04-10T11:43:33.621Z,13.09
2019-04-10T11:46:02.659Z,13.19
2019-04-10T11:48:31.174Z,13.13
2019-04-10T11:51:00.608Z,12.98
2019-04-10T11:53:27.657Z,12.73
2019-04-10T11:55:57.000Z,12.85
2019-04-10T11:58:25.262Z,12.81
2019-04-10T12:03:22.610Z,13.09
2019-04-10T12:05:51.838Z,13.21
2019-04-10T12:08:44.743Z,13.38
2019-04-10T12:13:18.376Z,13.36
2019-04-10T12:15:45.814Z,13.58
2019-04-10T12:18:14.115Z,13.44
2019-04-10T12:20:41.536Z,13.35
2019-04-10T12:23:08.892Z,13.22
2019-04-10T12:25:36.630Z,13.23
2019-04-10T12:28:04.028Z,13.10
2019-04-10T12:30:31.179Z,12.97
2019-04-10T12:32:58.206Z,13.13
2019-04-10T12:35:25.578Z,13.15
2019-04-10T12:38:01.461Z,13.29
2019-04-10T12:40:21.706Z,13.46
2019-04-10T12:42:48.995Z,13.51
2019-04-10T12:45:16.316Z,13.19
2019-04-10T12:47:43.425Z,13.17
2019-04-10T12:50:10.534Z,13.12
2019-04-10T12:52:38.703Z,13.13
2019-04-10T12:55:05.987Z,13.20
2019-04-10T12:57:33.394Z,13.18
2019-04-10T13:00:04.050Z,13.09
2019-04-10T13:02:30.308Z,13.21
2019-04-10T13:04:57.384Z,13.15
2019-04-10T13:07:24.709Z,13.14
2019-04-10T13:09:52.032Z,13.37
2019-04-10T13:12:19.088Z,13.45
2019-04-10T13:14:46.515Z,13.19
2019-04-10T13:17:14.368Z,13.12
2019-04-10T13:19:42.858Z,13.13
2019-04-10T13:22:11.678Z,12.94
2019-04-10T13:24:38.731Z,13.24
2019-04-10T13:27:06.246Z,13.55
2019-04-10T13:29:33.266Z,13.69
2019-04-10T13:32:01.378Z,13.95
2019-04-10T13:34:29.087Z,13.67
2019-04-10T13:36:56.735Z,13.42
2019-04-10T13:39:24.620Z,13.29
2019-04-10T13:41:52.566Z,13.15
2019-04-10T13:44:21.135Z,13.21
2019-04-10T13:46:49.065Z,13.10
2019-04-10T13:49:16.116Z,13.10
2019-04-10T13:51:43.601Z,13.14
2019-04-10T13:54:14.693Z,13.15
2019-04-10T13:56:41.318Z,13.39
2019-04-10T13:59:08.906Z,13.30
2019-04-10T14:01:36.324Z,13.03
2019-04-10T14:04:05.018Z,12.98
2019-04-10T14:06:33.931Z,12.72
2019-04-10T14:09:17.845Z,12.52
2019-04-10T14:11:31.727Z,12.55
2019-04-10T14:13:58.914Z,12.29
2019-04-10T14:16:26.211Z,12.35
2019-04-10T14:18:53.524Z,12.67
2019-04-10T14:21:20.880Z,12.58
2019-04-10T14:23:47.926Z,12.27
2019-04-10T14:26:16.159Z,12.20
2019-04-10T14:28:43.666Z,12.07
2019-04-10T14:31:11.708Z,12.13
2019-04-10T14:33:39.902Z,12.14
2019-04-10T14:36:07.602Z,12.11
2019-04-10T14:38:35.048Z,12.17
2019-04-10T14:41:03.222Z,12.24
2019-04-10T14:43:30.586Z,12.31
2019-04-10T14:45:57.744Z,12.52
2019-04-10T14:48:25.062Z,12.57
2019-04-10T14:50:52.420Z,12.51
2019-04-10T14:53:19.482Z,12.65
2019-04-10T14:58:49.008Z,12.48
2019-04-10T15:01:16.045Z,12.49
2019-04-10T15:03:44.477Z,12.43
2019-04-10T15:06:11.980Z,12.31
2019-04-10T15:08:39.702Z,12.31
2019-04-10T15:11:07.119Z,12.32
2019-04-10T15:13:34.436Z,12.31
2019-04-10T15:16:02.930Z,12.32
2019-04-10T15:18:30.908Z,12.37
2019-04-10T15:20:58.573Z,12.34
2019-04-10T15:23:25.733Z,12.23
2019-04-10T15:25:53.092Z,12.08
2019-04-10T15:28:20.141Z,12.11
2019-04-10T15:30:47.606Z,12.12
2019-04-10T15:33:14.635Z,12.14
2019-04-10T15:35:42.646Z,12.16
2019-04-10T15:38:10.058Z,12.20
2019-04-10T15:40:38.503Z,12.29
2019-04-10T15:43:06.096Z,12.31
2019-04-10T15:45:33.145Z,12.33
2019-04-10T15:48:01.571Z,12.48
2019-04-10T15:50:29.154Z,12.33
2019-04-10T15:52:57.864Z,12.38
2019-04-10T15:55:25.836Z,12.48
2019-04-10T15:57:57.814Z,12.42
2019-04-10T16:00:23.289Z,12.32
2019-04-10T16:02:51.031Z,12.31
2019-04-10T16:05:19.523Z,12.13
2019-04-10T16:07:47.003Z,12.16
2019-04-10T16:10:14.820Z,12.12
2019-04-10T16:12:42.343Z,12.01
2019-04-10T16:15:09.699Z,11.93
2019-04-10T16:17:37.654Z,11.68
2019-04-10T16:20:05.023Z,11.56
2019-04-10T16:22:33.168Z,11.47
2019-04-10T16:25:01.156Z,11.49
2019-04-10T16:27:28.731Z,11.50
2019-04-10T16:29:56.598Z,11.54
2019-04-10T16:32:24.440Z,11.50
2019-04-10T16:34:51.896Z,11.30
2019-04-10T16:37:18.939Z,11.26
2019-04-10T16:39:57.603Z,11.15
2019-04-10T16:42:15.061Z,11.18
2019-04-10T16:44:43.861Z,11.02
2019-04-10T16:47:12.021Z,10.93
2019-04-10T16:49:39.293Z,10.85
2019-04-10T16:52:07.119Z,10.79
2019-04-10T16:54:35.377Z,10.80
2019-04-10T16:57:02.845Z,10.81
2019-04-10T16:59:30.179Z,10.71
2019-04-10T17:01:57.347Z,10.68
2019-04-10T17:04:24.360Z,10.62
2019-04-10T17:06:52.569Z,10.55
2019-04-10T17:09:20.710Z,10.47
2019-04-10T17:11:49.284Z,10.43
2019-04-10T17:14:17.471Z,10.36
2019-04-10T17:16:46.049Z,10.35
2019-04-10T17:19:13.919Z,10.29
2019-04-10T17:21:42.550Z,10.31
2019-04-10T17:24:09.671Z,10.27
2019-04-10T17:26:37.132Z,10.20
2019-04-10T17:29:05.063Z,10.15
2019-04-10T17:31:32.942Z,10.08
2019-04-10T17:34:00.624Z,10.06
2019-04-10T17:36:29.414Z,10.00
2019-04-10T17:38:56.513Z,9.96
2019-04-10T17:41:23.873Z,9.93
2019-04-10T17:43:51.652Z,9.87
2019-04-10T17:46:19.391Z,9.84
2019-04-10T17:48:46.807Z,9.79
2019-04-10T17:51:14.149Z,9.74
2019-04-10T17:53:42.028Z,9.71
2019-04-10T17:56:09.234Z,9.67
2019-04-10T17:58:36.266Z,9.63
2019-04-10T18:01:03.957Z,9.60
2019-04-10T18:03:42.969Z,9.54
2019-04-10T18:06:01.352Z,9.50
2019-04-10T18:08:30.140Z,9.48
2019-04-10T18:10:58.713Z,9.47
2019-04-10T18:13:26.727Z,9.45
2019-04-10T18:15:55.402Z,9.48
2019-04-10T18:18:23.883Z,9.38
2019-04-10T18:20:52.489Z,9.33
2019-04-10T18:23:19.701Z,9.29
2019-04-10T18:25:46.965Z,9.24
2019-04-10T18:28:14.250Z,9.23
2019-04-10T18:30:41.314Z,9.29
2019-04-10T18:33:08.341Z,9.22
2019-04-10T18:35:35.390Z,9.16
2019-04-10T18:38:03.481Z,9.11
2019-04-10T18:40:31.930Z,9.09
2019-04-10T18:43:00.289Z,9.02
2019-04-10T18:45:28.028Z,9.02
2019-04-10T18:47:56.467Z,8.99
2019-04-10T18:50:24.483Z,9.00
2019-04-10T18:52:51.905Z,8.99
2019-04-10T18:55:20.389Z,9.05
2019-04-10T18:57:47.823Z,9.08
2019-04-10T19:00:15.758Z,9.08
2019-04-10T19:02:45.228Z,9.07
2019-04-10T19:05:13.889Z,9.06
2019-04-10T19:07:42.703Z,9.05
2019-04-10T19:10:11.486Z,9.08
2019-04-10T19:12:39.453Z,9.07
2019-04-10T19:15:06.803Z,9.04
2019-04-10T19:17:35.041Z,9.05
2019-04-10T19:20:02.514Z,9.04
2019-04-10T19:22:30.694Z,9.01
2019-04-10T19:24:58.346Z,8.96
2019-04-10T19:27:26.722Z,8.94
2019-04-10T19:29:54.970Z,8.90
2019-04-10T19:32:22.669Z,8.86
2019-04-10T19:34:50.113Z,8.87
2019-04-10T19:37:18.552Z,8.76
2019-04-10T19:39:46.873Z,8.72
2019-04-10T19:42:15.342Z,8.67
2019-04-10T19:44:43.506Z,8.67
2019-04-10T19:47:10.693Z,8.65
2019-04-10T19:49:38.786Z,8.60
2019-04-10T19:52:08.515Z,8.55
2019-04-10T19:54:35.985Z,8.54
2019-04-10T19:57:04.721Z,8.52
2019-04-10T19:59:32.058Z,8.50
2019-04-10T20:02:00.290Z,8.48
2019-04-10T20:04:28.396Z,8.44
2019-04-10T20:06:56.466Z,8.39
2019-04-10T20:09:24.286Z,8.32
2019-04-10T20:11:54.284Z,8.27
2019-04-10T20:14:20.338Z,8.22
2019-04-10T20:16:47.667Z,8.22
2019-04-10T20:19:15.214Z,8.18
2019-04-10T20:21:42.226Z,8.17
2019-04-10T20:24:10.413Z,8.13
2019-04-10T20:26:37.701Z,8.11
2019-04-10T20:29:04.985Z,8.07
2019-04-10T20:31:33.103Z,8.03
2019-04-10T20:34:00.142Z,8.00
2019-04-10T20:36:27.505Z,7.96
2019-04-10T20:38:54.862Z,7.92
2019-04-10T20:41:23.144Z,7.89
2019-04-10T20:43:51.190Z,7.91
2019-04-10T20:46:18.208Z,7.87
2019-04-10T20:48:46.699Z,7.83
2019-04-10T20:51:14.486Z,7.79
2019-04-10T20:53:42.239Z,7.75
2019-04-10T20:56:10.370Z,7.71
2019-04-10T20:58:38.200Z,7.71
2019-04-10T21:01:06.045Z,7.64
2019-04-10T21:03:33.838Z,7.62
2019-04-10T21:06:01.192Z,7.56
2019-04-10T21:08:29.684Z,7.48
2019-04-10T21:10:57.149Z,7.45
2019-04-10T21:13:25.320Z,7.36
2019-04-10T21:15:53.047Z,7.37
2019-04-10T21:18:21.195Z,7.32
2019-04-10T21:20:49.325Z,7.27
2019-04-10T21:23:17.168Z,7.23
2019-04-10T21:25:45.535Z,7.17
2019-04-10T21:28:12.676Z,7.09
2019-04-10T21:30:40.321Z,7.04
2019-04-10T21:33:07.951Z,6.97
2019-04-10T21:35:35.127Z,6.86
2019-04-10T21:38:02.636Z,6.76
2019-04-10T21:40:30.892Z,6.69
2019-04-10T21:42:58.197Z,6.60
2019-04-10T21:45:26.391Z,6.52
2019-04-10T21:47:54.375Z,6.41
2019-04-10T21:50:21.779Z,6.32
2019-04-10T21:52:49.754Z,6.23
2019-04-10T21:55:17.127Z,6.16
2019-04-10T21:57:44.754Z,6.06
2019-04-10T22:00:14.113Z,5.97
2019-04-10T22:02:45.006Z,5.90
2019-04-10T22:05:12.399Z,5.89
2019-04-10T22:07:40.528Z,5.83
2019-04-10T22:10:09.906Z,5.73
2019-04-10T22:12:43.876Z,5.65
2019-04-10T22:15:06.535Z,5.58
2019-04-10T22:17:34.217Z,5.53
2019-04-10T22:20:01.370Z,5.48
2019-04-10T22:22:28.990Z,5.46
2019-04-10T22:24:56.946Z,5.39
2019-04-10T22:27:25.489Z,5.31
2019-04-10T22:29:52.875Z,5.23
2019-04-10T22:32:19.912Z,5.18
2019-04-10T22:34:47.354Z,5.16
2019-04-10T22:37:16.603Z,5.09
2019-04-10T22:39:43.761Z,5.06
2019-04-10T22:42:11.101Z,5.03
2019-04-10T22:44:42.560Z,4.98
2019-04-10T22:47:07.143Z,4.99
2019-04-10T22:49:34.971Z,4.89
2019-04-10T22:52:02.641Z,4.86
2019-04-10T22:54:30.425Z,4.81
2019-04-10T22:56:58.513Z,4.78
2019-04-10T22:59:26.268Z,4.71
2019-04-10T23:02:03.390Z,4.62
2019-04-10T23:04:22.814Z,4.53
2019-04-10T23:06:50.297Z,4.53
2019-04-10T23:09:17.622Z,4.49
2019-04-10T23:11:46.213Z,4.40
2019-04-10T23:14:14.366Z,4.41
2019-04-10T23:16:41.483Z,4.41
2019-04-10T23:19:08.524Z,4.37
2019-04-10T23:21:36.581Z,4.32
2019-04-10T23:24:03.671Z,4.25
2019-04-10T23:26:31.214Z,4.22
2019-04-10T23:28:58.188Z,4.20
2019-04-10T23:31:25.750Z,4.19
2019-04-10T23:33:52.855Z,4.17
2019-04-10T23:36:20.212Z,4.09
2019-04-10T23:38:47.992Z,4.11
2019-04-10T23:41:15.657Z,4.06
2019-04-10T23:43:43.944Z,4.05
2019-04-10T23:46:11.772Z,4.01
2019-04-10T23:48:39.771Z,3.92
2019-04-10T23:51:07.116Z,3.84
2019-04-10T23:53:34.142Z,3.80
2019-04-10T23:56:02.135Z,3.81
2019-04-10T23:58:29.773Z,3.81
